Time,TemperatureF,DewpointF,PressureIn,WindDirection,WindDirectionDegrees,WindSpeedMPH,WindSpeedGustMPH,Humidity,HourlyPrecipIn,Conditions,Clouds,dailyrainin,SoftwareType,DateUTC
2013-07-06 00:00:00,52.2,49.1,29.39,NE,51,0.0,11.0,89,0.00,,,0.00,Wunderground v.1.15,2013-07-06 06:00:00,
2013-07-06 00:05:00,52.1,49.3,29.39,NE,51,0.0,11.0,90,0.00,,,0.00,Wunderground v.1.15,2013-07-06 06:05:00,
2013-07-06 00:10:00,52.1,49.3,29.39,NE,51,0.0,11.0,90,0.00,,,0.00,Wunderground v.1.15,2013-07-06 06:10:00,
2013-07-06 00:15:00,52.1,49.3,29.38,NE,51,0.0,11.0,90,0.00,,,0.00,Wunderground v.1.15,2013-07-06 06:15:00,
2013-07-06 00:20:00,52.1,49.3,29.38,NE,51,0.0,11.0,90,0.00,,,0.00,Wunderground v.1.15,2013-07-06 06:20:00,
2013-07-06 00:25:00,52.2,49.4,29.38,NE,51,0.0,11.0,90,0.00,,,0.00,Wunderground v.1.15,2013-07-06 06:25:00,
2013-07-06 00:30:00,52.3,49.2,29.38,NE,51,0.0,11.0,89,0.00,,,0.00,Wunderground v.1.15,2013-07-06 06:30:00,
2013-07-06 00:35:00,52.4,49.3,29.38,NE,51,0.0,11.0,89,0.00,,,0.00,Wunderground v.1.15,2013-07-06 06:35:00,
2013-07-06 00:40:00,52.4,48.9,29.37,NE,51,0.0,11.0,88,0.00,,,0.00,Wunderground v.1.15,2013-07-06 06:40:00,
2013-07-06 00:45:00,52.4,48.9,29.37,NE,51,0.0,11.0,88,0.00,,,0.00,Wunderground v.1.15,2013-07-06 06:45:00,
2013-07-06 00:50:00,52.5,48.7,29.37,NE,51,0.0,11.0,87,0.00,,,0.00,Wunderground v.1.15,2013-07-06 06:50:00,
2013-07-06 00:55:00,52.7,48.6,29.37,NE,51,0.0,11.0,86,0.00,,,0.00,Wunderground v.1.15,2013-07-06 06:55:00,
2013-07-06 01:00:00,53.1,49.0,29.37,NE,51,0.0,11.0,86,0.00,,,0.00,Wunderground v.1.15,2013-07-06 07:00:00,
2013-07-06 01:05:00,53.6,48.6,29.36,NE,51,0.0,11.0,83,0.00,,,0.00,Wunderground v.1.15,2013-07-06 07:05:00,
2013-07-06 01:10:00,53.9,48.9,29.36,NE,51,0.0,11.0,83,0.00,,,0.00,Wunderground v.1.15,2013-07-06 07:10:00,
2013-07-06 01:15:00,54.1,48.4,29.36,NE,51,0.0,11.0,81,0.00,,,0.00,Wunderground v.1.15,2013-07-06 07:15:00,
2013-07-06 01:20:00,54.4,48.4,29.36,NE,51,0.0,11.0,80,0.00,,,0.00,Wunderground v.1.15,2013-07-06 07:20:00,
2013-07-06 01:35:00,55.0,48.6,29.36,NE,49,0.0,11.0,79,0.00,,,0.00,Wunderground v.1.15,2013-07-06 07:35:00,
2013-07-06 01:40:00,55.1,48.4,29.36,NE,49,0.0,11.0,78,0.00,,,0.00,Wunderground v.1.15,2013-07-06 07:40:00,
2013-07-06 01:45:00,55.1,48.0,29.36,NE,49,0.0,11.0,77,0.00,,,0.00,Wunderground v.1.15,2013-07-06 07:45:00,
2013-07-06 01:50:00,55.1,48.4,29.35,NE,49,0.0,11.0,78,0.00,,,0.00,Wunderground v.1.15,2013-07-06 07:50:00,
2013-07-06 01:55:00,55.0,48.3,29.35,NE,49,0.0,11.0,78,0.00,,,0.00,Wunderground v.1.15,2013-07-06 07:55:00,
2013-07-06 02:00:00,54.9,47.8,29.35,NE,49,0.0,11.0,77,0.00,,,0.00,Wunderground v.1.15,2013-07-06 08:00:00,
2013-07-06 02:05:00,54.9,47.8,29.35,NE,49,0.0,11.0,77,0.00,,,0.00,Wunderground v.1.15,2013-07-06 08:05:00,
2013-07-06 02:10:00,54.7,47.6,29.35,NE,49,0.0,11.0,77,0.00,,,0.00,Wunderground v.1.15,2013-07-06 08:10:00,
2013-07-06 02:15:00,54.9,47.1,29.35,NE,49,0.0,11.0,75,0.00,,,0.00,Wunderground v.1.15,2013-07-06 08:15:00,
2013-07-06 02:20:00,55.5,47.0,29.35,NE,49,0.0,11.0,73,0.00,,,0.00,Wunderground v.1.15,2013-07-06 08:20:00,
2013-07-06 02:25:00,55.9,47.0,29.35,NE,49,0.0,11.0,72,0.00,,,0.00,Wunderground v.1.15,2013-07-06 08:25:00,
2013-07-06 02:30:00,55.9,47.4,29.35,NE,49,0.0,11.0,73,0.00,,,0.00,Wunderground v.1.15,2013-07-06 08:30:00,
2013-07-06 02:35:00,55.7,47.2,29.35,NE,49,0.0,11.0,73,0.00,,,0.00,Wunderground v.1.15,2013-07-06 08:35:00,
2013-07-06 02:45:00,55.7,47.5,29.36,NE,49,0.0,11.0,74,0.00,,,0.00,Wunderground v.1.15,2013-07-06 08:45:00,
2013-07-06 02:50:00,55.6,47.4,29.36,NE,49,0.0,11.0,74,0.00,,,0.00,Wunderground v.1.15,2013-07-06 08:50:00,
2013-07-06 03:00:00,55.6,46.7,29.36,SW,221,0.0,11.0,72,0.00,,,0.00,Wunderground v.1.15,2013-07-06 09:00:00,
2013-07-06 03:05:00,55.4,46.5,29.36,SW,221,0.0,11.0,72,0.00,,,0.00,Wunderground v.1.15,2013-07-06 09:05:00,
2013-07-06 03:10:00,55.3,46.4,29.36,SW,221,0.0,11.0,72,0.00,,,0.00,Wunderground v.1.15,2013-07-06 09:10:00,
2013-07-06 03:15:00,55.3,46.1,29.36,West,272,0.0,11.0,71,0.00,,,0.00,Wunderground v.1.15,2013-07-06 09:15:00,
2013-07-06 03:25:00,55.9,46.6,29.36,WNW,302,0.0,11.0,71,0.00,,,0.00,Wunderground v.1.15,2013-07-06 09:25:00,
2013-07-06 03:30:00,56.2,46.5,29.36,West,263,0.0,11.0,70,0.00,,,0.00,Wunderground v.1.15,2013-07-06 09:30:00,
2013-07-06 03:35:00,56.3,46.6,29.36,North,5,0.0,11.0,70,0.00,,,0.00,Wunderground v.1.15,2013-07-06 09:35:00,
2013-07-06 03:40:00,56.6,46.5,29.36,North,351,0.0,11.0,69,0.00,,,0.00,Wunderground v.1.15,2013-07-06 09:40:00,
2013-07-06 03:45:00,56.7,46.6,29.36,NNW,334,0.0,11.0,69,0.00,,,0.00,Wunderground v.1.15,2013-07-06 09:45:00,
2013-07-06 03:50:00,56.7,47.0,29.37,SW,227,0.0,11.0,70,0.00,,,0.00,Wunderground v.1.15,2013-07-06 09:50:00,
2013-07-06 03:55:00,56.8,46.7,29.37,WNW,300,0.0,11.0,69,0.00,,,0.00,Wunderground v.1.15,2013-07-06 09:55:00,
2013-07-06 04:00:00,56.9,46.4,29.37,West,268,1.0,11.0,68,0.00,,,0.00,Wunderground v.1.15,2013-07-06 10:00:00,
2013-07-06 04:05:00,57.3,46.4,29.37,West,268,0.0,11.0,67,0.00,,,0.00,Wunderground v.1.15,2013-07-06 10:05:00,
2013-07-06 04:10:00,57.9,46.2,29.37,WNW,282,0.0,11.0,65,0.00,,,0.00,Wunderground v.1.15,2013-07-06 10:10:00,
2013-07-06 04:15:00,58.4,45.8,29.37,WNW,294,1.0,11.0,63,0.00,,,0.00,Wunderground v.1.15,2013-07-06 10:15:00,
2013-07-06 04:20:00,58.8,45.8,29.37,NW,314,1.0,11.0,62,0.00,,,0.00,Wunderground v.1.15,2013-07-06 10:20:00,
2013-07-06 04:25:00,59.2,45.8,29.38,WNW,285,1.0,11.0,61,0.00,,,0.00,Wunderground v.1.15,2013-07-06 10:25:00,
2013-07-06 04:30:00,59.2,45.8,29.38,WNW,285,1.0,1.0,61,0.00,,,0.00,Wunderground v.1.15,2013-07-06 10:30:00,
2013-07-06 04:35:00,59.1,45.7,29.38,North,5,0.0,11.0,61,0.00,,,0.00,Wunderground v.1.15,2013-07-06 10:35:00,
2013-07-06 04:40:00,59.2,45.8,29.38,West,261,1.0,1.0,61,0.00,,,0.01,Wunderground v.1.15,2013-07-06 10:40:00,
2013-07-06 04:50:00,59.2,45.3,29.38,WNW,282,0.0,11.0,60,0.00,,,0.01,Wunderground v.1.15,2013-07-06 10:50:00,
2013-07-06 04:55:00,59.0,45.6,29.39,WNW,282,0.0,11.0,61,0.00,,,0.01,Wunderground v.1.15,2013-07-06 10:55:00,
2013-07-06 05:00:00,58.8,44.9,29.39,NW,325,0.0,11.0,60,0.00,,,0.01,Wunderground v.1.15,2013-07-06 11:00:00,
2013-07-06 05:05:00,58.8,44.9,29.39,NW,325,0.0,11.0,60,0.00,,,0.01,Wunderground v.1.15,2013-07-06 11:05:00,
2013-07-06 05:10:00,58.8,44.9,29.40,NW,322,0.0,11.0,60,0.00,,,0.01,Wunderground v.1.15,2013-07-06 11:10:00,
2013-07-06 05:20:00,58.5,44.2,29.40,NW,322,0.0,11.0,59,0.00,,,0.01,Wunderground v.1.15,2013-07-06 11:20:00,
2013-07-06 05:25:00,58.2,44.4,29.40,NW,322,0.0,11.0,60,0.00,,,0.01,Wunderground v.1.15,2013-07-06 11:25:00,
2013-07-06 05:30:00,57.9,44.5,29.40,NW,322,0.0,11.0,61,0.00,,,0.01,Wunderground v.1.15,2013-07-06 11:30:00,
2013-07-06 05:35:00,57.5,44.1,29.40,NW,322,0.0,11.0,61,0.00,,,0.01,Wunderground v.1.15,2013-07-06 11:35:00,
2013-07-06 05:40:00,57.0,44.1,29.40,NW,322,0.0,11.0,62,0.00,,,0.01,Wunderground v.1.15,2013-07-06 11:40:00,
2013-07-06 05:45:00,56.6,44.1,29.40,NW,322,0.0,11.0,63,0.00,,,0.01,Wunderground v.1.15,2013-07-06 11:45:00,
2013-07-06 05:50:00,56.0,44.0,29.39,NW,322,0.0,11.0,64,0.00,,,0.01,Wunderground v.1.15,2013-07-06 11:50:00,
2013-07-06 05:55:00,55.7,44.5,29.40,NW,322,0.0,11.0,66,0.00,,,0.01,Wunderground v.1.15,2013-07-06 11:55:00,
2013-07-06 06:00:00,55.8,45.0,29.39,NW,322,0.0,11.0,67,0.00,,,0.01,Wunderground v.1.15,2013-07-06 12:00:00,
2013-07-06 06:05:00,55.7,44.9,29.39,NW,322,0.0,11.0,67,0.00,,,0.01,Wunderground v.1.15,2013-07-06 12:05:00,
2013-07-06 06:10:00,55.5,44.7,29.39,NW,322,0.0,11.0,67,0.00,,,0.01,Wunderground v.1.15,2013-07-06 12:10:00,
2013-07-06 06:15:00,55.4,45.0,29.39,NW,322,0.0,11.0,68,0.00,,,0.01,Wunderground v.1.15,2013-07-06 12:15:00,
2013-07-06 06:20:00,55.3,44.9,29.39,NW,322,0.0,11.0,68,0.00,,,0.01,Wunderground v.1.15,2013-07-06 12:20:00,
2013-07-06 06:25:00,55.2,44.8,29.39,NW,322,0.0,11.0,68,0.00,,,0.01,Wunderground v.1.15,2013-07-06 12:25:00,
2013-07-06 06:30:00,55.3,44.9,29.39,NW,322,0.0,11.0,68,0.00,,,0.01,Wunderground v.1.15,2013-07-06 12:30:00,
2013-07-06 06:35:00,55.8,45.4,29.39,NW,322,0.0,11.0,68,0.00,,,0.01,Wunderground v.1.15,2013-07-06 12:35:00,
2013-07-06 06:40:00,55.8,45.4,29.40,NW,322,0.0,11.0,68,0.00,,,0.01,Wunderground v.1.15,2013-07-06 12:40:00,
2013-07-06 06:45:00,56.0,45.6,29.40,NW,322,0.0,11.0,68,0.00,,,0.01,Wunderground v.1.15,2013-07-06 12:45:00,
2013-07-06 06:50:00,56.4,45.2,29.39,NW,322,0.0,11.0,66,0.00,,,0.01,Wunderground v.1.15,2013-07-06 12:50:00,
2013-07-06 06:55:00,57.0,46.1,29.40,NW,322,0.0,11.0,67,0.00,,,0.01,Wunderground v.1.15,2013-07-06 12:55:00,
2013-07-06 07:00:00,57.8,45.7,29.40,NW,322,0.0,11.0,64,0.00,,,0.01,Wunderground v.1.15,2013-07-06 13:00:00,
2013-07-06 07:05:00,58.8,45.8,29.40,NW,322,0.0,11.0,62,0.00,,,0.01,Wunderground v.1.15,2013-07-06 13:05:00,
2013-07-06 07:10:00,59.8,45.4,29.39,West,275,0.0,11.0,59,0.00,,,0.01,Wunderground v.1.15,2013-07-06 13:10:00,
2013-07-06 07:20:00,61.7,45.8,29.39,WNW,293,0.0,11.0,56,0.00,,,0.01,Wunderground v.1.15,2013-07-06 13:20:00,
2013-07-06 07:25:00,62.4,45.5,29.39,SW,234,0.0,11.0,54,0.00,,,0.01,Wunderground v.1.15,2013-07-06 13:25:00,
2013-07-06 07:30:00,63.1,46.2,29.39,SW,234,0.0,11.0,54,0.00,,,0.01,Wunderground v.1.15,2013-07-06 13:30:00,
2013-07-06 07:35:00,63.9,46.4,29.39,SW,234,0.0,11.0,53,0.00,,,0.01,Wunderground v.1.15,2013-07-06 13:35:00,
2013-07-06 07:40:00,64.9,45.8,29.39,SW,236,0.0,11.0,50,0.00,,,0.01,Wunderground v.1.15,2013-07-06 13:40:00,
2013-07-06 07:45:00,65.6,45.4,29.39,WSW,247,0.0,11.0,48,0.00,,,0.01,Wunderground v.1.15,2013-07-06 13:45:00,
2013-07-06 07:50:00,66.3,46.0,29.39,WNW,290,0.0,11.0,48,0.00,,,0.01,Wunderground v.1.15,2013-07-06 13:50:00,
2013-07-06 07:55:00,66.8,45.9,29.39,WNW,298,0.0,11.0,47,0.00,,,0.01,Wunderground v.1.15,2013-07-06 13:55:00,
2013-07-06 08:05:00,66.6,45.2,29.39,South,176,0.0,11.0,46,0.00,,,0.01,Wunderground v.1.15,2013-07-06 14:05:00,
2013-07-06 08:10:00,66.4,46.1,29.39,WNW,285,0.0,11.0,48,0.00,,,0.01,Wunderground v.1.15,2013-07-06 14:10:00,
2013-07-06 08:15:00,66.0,45.7,29.39,WNW,292,0.0,11.0,48,0.00,,,0.01,Wunderground v.1.15,2013-07-06 14:15:00,
2013-07-06 08:20:00,66.1,45.8,29.39,WNW,286,0.0,11.0,48,0.00,,,0.01,Wunderground v.1.15,2013-07-06 14:20:00,
2013-07-06 08:25:00,66.4,46.7,29.39,West,281,0.0,11.0,49,0.00,,,0.01,Wunderground v.1.15,2013-07-06 14:25:00,
2013-07-06 08:30:00,66.8,45.3,29.39,SW,216,0.0,11.0,46,0.00,,,0.01,Wunderground v.1.15,2013-07-06 14:30:00,
2013-07-06 08:35:00,67.8,45.7,29.39,SW,216,0.0,11.0,45,0.00,,,0.01,Wunderground v.1.15,2013-07-06 14:35:00,
2013-07-06 08:45:00,68.5,45.7,29.39,SW,218,0.0,11.0,44,0.00,,,0.01,Wunderground v.1.15,2013-07-06 14:45:00,
2013-07-06 08:50:00,68.4,45.0,29.39,SW,224,0.0,11.0,43,0.00,,,0.01,Wunderground v.1.15,2013-07-06 14:50:00,
2013-07-06 09:00:00,68.0,45.3,29.39,SW,235,1.0,1.0,44,0.00,,,0.01,Wunderground v.1.15,2013-07-06 15:00:00,
2013-07-06 09:10:00,67.8,44.5,29.40,South,172,0.0,11.0,43,0.00,,,0.01,Wunderground v.1.15,2013-07-06 15:10:00,
2013-07-06 09:20:00,67.7,45.0,29.40,WSW,245,0.0,11.0,44,0.00,,,0.01,Wunderground v.1.15,2013-07-06 15:20:00,
2013-07-06 09:25:00,67.7,45.0,29.40,West,279,1.0,11.0,44,0.00,,,0.01,Wunderground v.1.15,2013-07-06 15:25:00,
2013-07-06 09:30:00,68.3,46.1,29.40,WNW,284,1.0,1.0,45,0.00,,,0.01,Wunderground v.1.15,2013-07-06 15:30:00,
2013-07-06 09:35:00,68.7,45.3,29.40,West,273,0.0,11.0,43,0.00,,,0.01,Wunderground v.1.15,2013-07-06 15:35:00,
2013-07-06 09:40:00,68.7,46.5,29.40,WSW,254,1.0,1.0,45,0.00,,,0.01,Wunderground v.1.15,2013-07-06 15:40:00,
2013-07-06 09:45:00,69.1,46.3,29.40,WSW,255,0.0,11.0,44,0.00,,,0.01,Wunderground v.1.15,2013-07-06 15:45:00,
2013-07-06 09:50:00,69.2,45.7,29.40,NNW,342,1.0,1.0,43,0.00,,,0.01,Wunderground v.1.15,2013-07-06 15:50:00,
2013-07-06 09:55:00,69.3,46.4,29.40,NNW,341,0.0,11.0,44,0.00,,,0.01,Wunderground v.1.15,2013-07-06 15:55:00,
2013-07-06 10:00:00,69.3,45.8,29.40,West,271,0.0,11.0,43,0.00,,,0.01,Wunderground v.1.15,2013-07-06 16:00:00,
2013-07-06 10:05:00,69.4,46.5,29.40,West,271,0.0,11.0,44,0.00,,,0.01,Wunderground v.1.15,2013-07-06 16:05:00,
2013-07-06 10:15:00,69.6,46.7,29.40,NW,306,0.0,11.0,44,0.00,,,0.01,Wunderground v.1.15,2013-07-06 16:15:00,
2013-07-06 10:20:00,69.6,46.7,29.41,North,350,0.0,11.0,44,0.00,,,0.01,Wunderground v.1.15,2013-07-06 16:20:00,
2013-07-06 10:25:00,69.6,45.5,29.41,West,281,1.0,11.0,42,0.00,,,0.01,Wunderground v.1.15,2013-07-06 16:25:00,
2013-07-06 10:35:00,70.1,44.6,29.41,West,277,0.0,11.0,40,0.00,,,0.01,Wunderground v.1.15,2013-07-06 16:35:00,
2013-07-06 10:40:00,70.5,45.0,29.41,NW,311,0.0,11.0,40,0.00,,,0.01,Wunderground v.1.15,2013-07-06 16:40:00,
2013-07-06 10:50:00,71.4,44.5,29.41,SW,218,0.0,11.0,38,0.00,,,0.01,Wunderground v.1.15,2013-07-06 16:50:00,
2013-07-06 11:00:00,72.0,43.6,29.41,West,262,0.0,11.0,36,0.00,,,0.01,Wunderground v.1.15,2013-07-06 17:00:00,
2013-07-06 11:10:00,72.7,44.2,29.41,North,355,0.0,11.0,36,0.00,,,0.01,Wunderground v.1.15,2013-07-06 17:10:00,
2013-07-06 11:15:00,73.2,44.6,29.41,East,94,0.0,11.0,36,0.00,,,0.01,Wunderground v.1.15,2013-07-06 17:15:00,
2013-07-06 11:20:00,73.9,43.8,29.41,East,98,0.0,11.0,34,0.00,,,0.01,Wunderground v.1.15,2013-07-06 17:20:00,
2013-07-06 11:30:00,74.8,43.8,29.41,South,170,1.0,1.0,33,0.00,,,0.01,Wunderground v.1.15,2013-07-06 17:30:00,
2013-07-06 11:35:00,75.2,43.3,29.41,SW,214,1.0,11.0,32,0.00,,,0.01,Wunderground v.1.15,2013-07-06 17:35:00,
2013-07-06 11:40:00,75.3,44.2,29.41,SW,219,0.0,11.0,33,0.00,,,0.01,Wunderground v.1.15,2013-07-06 17:40:00,
2013-07-06 11:45:00,75.1,44.0,29.41,SSE,160,1.0,11.0,33,0.00,,,0.01,Wunderground v.1.15,2013-07-06 17:45:00,
2013-07-06 11:50:00,74.9,43.8,29.41,SSW,205,1.0,1.0,33,0.00,,,0.01,Wunderground v.1.15,2013-07-06 17:50:00,
2013-07-06 11:55:00,75.4,44.3,29.41,SSE,157,1.0,5.0,33,0.00,,,0.01,Wunderground v.1.15,2013-07-06 17:55:00,
2013-07-06 12:05:00,76.1,44.1,29.40,South,184,2.0,11.0,32,0.00,,,0.01,Wunderground v.1.15,2013-07-06 18:05:00,
2013-07-06 12:15:00,76.1,44.9,29.40,SSW,194,2.0,11.0,33,0.00,,,0.01,Wunderground v.1.15,2013-07-06 18:15:00,
2013-07-06 12:35:00,78.2,44.2,29.40,West,277,2.0,2.0,30,0.00,,,0.01,Wunderground v.1.15,2013-07-06 18:35:00,
2013-07-06 12:40:00,77.2,44.2,29.40,SW,236,2.0,11.0,31,0.00,,,0.01,Wunderground v.1.15,2013-07-06 18:40:00,
2013-07-06 12:45:00,76.9,44.0,29.40,NW,304,1.0,1.0,31,0.00,,,0.01,Wunderground v.1.15,2013-07-06 18:45:00,
2013-07-06 13:10:00,76.5,43.6,29.39,ESE,113,1.0,1.0,31,0.00,,,0.01,Wunderground v.1.15,2013-07-06 19:10:00,
2013-07-06 13:20:00,76.4,43.5,29.39,East,101,0.0,11.0,31,0.00,,,0.01,Wunderground v.1.15,2013-07-06 19:20:00,
2013-07-06 13:30:00,76.9,43.1,29.39,East,84,1.0,11.0,30,0.00,,,0.01,Wunderground v.1.15,2013-07-06 19:30:00,
2013-07-06 13:35:00,77.4,45.2,29.39,ENE,74,1.0,11.0,32,0.00,,,0.01,Wunderground v.1.15,2013-07-06 19:35:00,
2013-07-06 13:45:00,77.1,43.3,29.38,North,355,1.0,11.0,30,0.00,,,0.01,Wunderground v.1.15,2013-07-06 19:45:00,
2013-07-06 13:50:00,76.8,41.2,29.38,North,355,1.0,1.0,28,0.00,,,0.01,Wunderground v.1.15,2013-07-06 19:50:00,
2013-07-06 14:00:00,75.6,38.3,29.39,North,349,1.0,11.0,26,0.00,,,0.01,Wunderground v.1.15,2013-07-06 20:00:00,
2013-07-06 14:05:00,75.1,37.9,29.39,NNW,348,1.0,11.0,26,0.00,,,0.01,Wunderground v.1.15,2013-07-06 20:05:00,
2013-07-06 14:15:00,74.7,38.5,29.39,NNW,348,0.0,11.0,27,0.00,,,0.01,Wunderground v.1.15,2013-07-06 20:15:00,
2013-07-06 14:20:00,74.8,40.4,29.39,NNE,27,0.0,11.0,29,0.00,,,0.01,Wunderground v.1.15,2013-07-06 20:20:00,
2013-07-06 14:25:00,74.3,41.7,29.40,South,188,0.0,11.0,31,0.00,,,0.01,Wunderground v.1.15,2013-07-06 20:25:00,
2013-07-06 14:30:00,73.9,43.0,29.40,South,191,0.0,11.0,33,0.00,,,0.01,Wunderground v.1.15,2013-07-06 20:30:00,
2013-07-06 14:35:00,73.5,42.6,29.40,SSW,192,0.0,11.0,33,0.00,,,0.01,Wunderground v.1.15,2013-07-06 20:35:00,
2013-07-06 14:40:00,73.2,42.4,29.40,SSW,192,0.0,11.0,33,0.00,,,0.01,Wunderground v.1.15,2013-07-06 20:40:00,
2013-07-06 15:05:00,76.6,39.1,29.39,NNW,327,1.0,11.0,26,0.00,,,0.01,Wunderground v.1.15,2013-07-06 21:05:00,
2013-07-06 15:25:00,77.0,40.4,29.38,NNE,22,0.0,11.0,27,0.00,,,0.01,Wunderground v.1.15,2013-07-06 21:25:00,
2013-07-06 15:30:00,77.2,42.5,29.39,East,86,0.0,11.0,29,0.00,,,0.01,Wunderground v.1.15,2013-07-06 21:30:00,
2013-07-06 15:35:00,76.3,43.4,29.39,SSE,163,2.0,11.0,31,0.00,,,0.01,Wunderground v.1.15,2013-07-06 21:35:00,
2013-07-06 15:45:00,73.7,45.1,29.40,NE,51,1.0,11.0,36,0.00,,,0.01,Wunderground v.1.15,2013-07-06 21:45:00,
2013-07-06 16:00:00,68.6,44.6,29.41,WNW,290,3.0,3.0,42,0.00,,,0.01,Wunderground v.1.15,2013-07-06 22:00:00,
2013-07-06 16:05:00,68.0,44.7,29.41,North,360,3.0,11.0,43,0.00,,,0.01,Wunderground v.1.15,2013-07-06 22:05:00,
2013-07-06 16:10:00,67.8,43.9,29.41,NNE,17,2.0,2.0,42,0.00,,,0.01,Wunderground v.1.15,2013-07-06 22:10:00,
2013-07-06 16:25:00,67.2,43.3,29.41,NE,36,2.0,11.0,42,0.00,,,0.01,Wunderground v.1.15,2013-07-06 22:25:00,
2013-07-06 16:35:00,66.8,43.0,29.41,NNW,348,2.0,11.0,42,0.00,,,0.01,Wunderground v.1.15,2013-07-06 22:35:00,
2013-07-06 16:40:00,66.8,43.6,29.41,North,5,1.0,1.0,43,0.00,,,0.01,Wunderground v.1.15,2013-07-06 22:40:00,
2013-07-06 16:50:00,66.6,44.0,29.41,NNW,341,0.0,11.0,44,0.00,,,0.01,Wunderground v.1.15,2013-07-06 22:50:00,
2013-07-06 17:05:00,66.9,44.9,29.42,NNW,342,0.0,11.0,45,0.00,,,0.01,Wunderground v.1.15,2013-07-06 23:05:00,
2013-07-06 17:10:00,67.0,45.5,29.42,NNW,342,0.0,11.0,46,0.00,,,0.01,Wunderground v.1.15,2013-07-06 23:10:00,
2013-07-06 17:20:00,66.7,48.5,29.42,SE,141,0.0,11.0,52,0.00,,,0.01,Wunderground v.1.15,2013-07-06 23:20:00,
2013-07-06 17:30:00,64.1,48.5,29.43,NE,54,1.0,1.0,57,0.00,,,0.02,Wunderground v.1.15,2013-07-06 23:30:00,
2013-07-06 17:35:00,63.3,47.3,29.43,East,84,1.0,2.0,56,0.00,,,0.02,Wunderground v.1.15,2013-07-06 23:35:00,
2013-07-06 17:50:00,62.9,49.7,29.42,ESE,119,1.0,11.0,62,0.00,,,0.02,Wunderground v.1.15,2013-07-06 23:50:00,
2013-07-06 17:55:00,62.8,50.0,29.41,SSE,151,3.0,3.0,63,0.00,,,0.02,Wunderground v.1.15,2013-07-06 23:55:00,
2013-07-06 18:05:00,62.8,50.9,29.41,NE,40,1.0,11.0,65,0.00,,,0.02,Wunderground v.1.15,2013-07-07 00:05:00,
2013-07-06 18:20:00,63.0,49.8,29.41,SE,126,1.0,1.0,62,0.00,,,0.02,Wunderground v.1.15,2013-07-07 00:20:00,
2013-07-06 18:45:00,63.1,49.4,29.42,ENE,69,1.0,1.0,61,0.00,,,0.02,Wunderground v.1.15,2013-07-07 00:45:00,
2013-07-06 18:50:00,63.1,49.9,29.42,NE,53,1.0,11.0,62,0.00,,,0.02,Wunderground v.1.15,2013-07-07 00:50:00,
2013-07-06 18:55:00,63.2,49.5,29.42,NE,52,0.0,11.0,61,0.00,,,0.02,Wunderground v.1.15,2013-07-07 00:55:00,
2013-07-06 19:00:00,63.1,49.9,29.42,NE,51,0.0,11.0,62,0.00,,,0.02,Wunderground v.1.15,2013-07-07 01:00:00,
2013-07-06 19:10:00,63.0,48.9,29.42,East,86,1.0,1.0,60,0.00,,,0.02,Wunderground v.1.15,2013-07-07 01:10:00,
2013-07-06 19:20:00,63.1,48.5,29.43,East,79,1.0,1.0,59,0.00,,,0.02,Wunderground v.1.15,2013-07-07 01:20:00,
2013-07-06 19:35:00,63.1,48.1,29.43,ENE,62,1.0,11.0,58,0.00,,,0.02,Wunderground v.1.15,2013-07-07 01:35:00,
2013-07-06 19:45:00,63.1,47.6,29.44,NE,53,1.0,11.0,57,0.00,,,0.02,Wunderground v.1.15,2013-07-07 01:45:00,
2013-07-06 20:05:00,63.0,48.9,29.45,East,86,0.0,11.0,60,0.00,,,0.02,Wunderground v.1.15,2013-07-07 02:05:00,
2013-07-06 20:20:00,62.6,49.4,29.47,ENE,77,0.0,11.0,62,0.00,,,0.02,Wunderground v.1.15,2013-07-07 02:20:00,
2013-07-06 20:25:00,62.4,49.2,29.47,North,355,0.0,11.0,62,0.00,,,0.02,Wunderground v.1.15,2013-07-07 02:25:00,
2013-07-06 20:35:00,62.2,49.4,29.48,North,10,0.0,11.0,63,0.00,,,0.02,Wunderground v.1.15,2013-07-07 02:35:00,
2013-07-06 20:45:00,62.0,49.3,29.47,NNE,13,0.0,11.0,63,0.00,,,0.02,Wunderground v.1.15,2013-07-07 02:45:00,
2013-07-06 20:50:00,61.8,49.1,29.47,NNE,18,0.0,11.0,63,0.00,,,0.02,Wunderground v.1.15,2013-07-07 02:50:00,
2013-07-06 21:00:00,61.6,48.9,29.47,ENE,57,0.0,11.0,63,0.00,,,0.02,Wunderground v.1.15,2013-07-07 03:00:00,
2013-07-06 21:05:00,61.4,48.7,29.47,ENE,57,0.0,11.0,63,0.00,,,0.02,Wunderground v.1.15,2013-07-07 03:05:00,
2013-07-06 21:10:00,61.4,47.8,29.47,NE,56,0.0,11.0,61,0.00,,,0.02,Wunderground v.1.15,2013-07-07 03:10:00,
2013-07-06 21:20:00,61.5,48.4,29.48,East,84,0.0,11.0,62,0.00,,,0.02,Wunderground v.1.15,2013-07-07 03:20:00,
2013-07-06 21:25:00,61.4,48.3,29.48,East,84,0.0,11.0,62,0.00,,,0.02,Wunderground v.1.15,2013-07-07 03:25:00,
2013-07-06 21:30:00,61.3,49.0,29.48,East,84,0.0,11.0,64,0.00,,,0.02,Wunderground v.1.15,2013-07-07 03:30:00,
2013-07-06 21:35:00,61.0,49.1,29.49,East,84,0.0,11.0,65,0.00,,,0.02,Wunderground v.1.15,2013-07-07 03:35:00,
2013-07-06 21:40:00,60.6,48.8,29.49,East,84,0.0,11.0,65,0.00,,,0.02,Wunderground v.1.15,2013-07-07 03:40:00,
2013-07-06 21:45:00,60.4,49.8,29.49,East,84,0.0,11.0,68,0.00,,,0.02,Wunderground v.1.15,2013-07-07 03:45:00,
2013-07-06 21:55:00,59.9,49.3,29.50,East,84,0.0,11.0,68,0.00,,,0.02,Wunderground v.1.15,2013-07-07 03:55:00,
2013-07-06 22:05:00,59.3,48.7,29.50,East,84,0.0,11.0,68,0.00,,,0.02,Wunderground v.1.15,2013-07-07 04:05:00,
2013-07-06 22:15:00,58.7,48.9,29.50,East,84,0.0,11.0,70,0.00,,,0.02,Wunderground v.1.15,2013-07-07 04:15:00,
2013-07-06 22:25:00,58.1,48.4,29.50,East,84,0.0,11.0,70,0.00,,,0.02,Wunderground v.1.15,2013-07-07 04:25:00,
2013-07-06 22:30:00,57.8,48.5,29.50,East,84,0.0,11.0,71,0.00,,,0.02,Wunderground v.1.15,2013-07-07 04:30:00,
2013-07-06 22:35:00,57.5,48.2,29.50,East,84,0.0,11.0,71,0.00,,,0.02,Wunderground v.1.15,2013-07-07 04:35:00,
2013-07-06 22:40:00,57.1,48.5,29.49,East,84,0.0,11.0,73,0.00,,,0.02,Wunderground v.1.15,2013-07-07 04:40:00,
2013-07-06 22:45:00,56.8,48.2,29.49,East,84,0.0,11.0,73,0.00,,,0.02,Wunderground v.1.15,2013-07-07 04:45:00,
2013-07-06 22:50:00,56.7,48.5,29.49,East,84,0.0,11.0,74,0.00,,,0.02,Wunderground v.1.15,2013-07-07 04:50:00,
2013-07-06 23:00:00,56.4,48.9,29.49,East,84,0.0,11.0,76,0.00,,,0.02,Wunderground v.1.15,2013-07-07 05:00:00,
2013-07-06 23:05:00,56.6,48.4,29.49,East,84,0.0,11.0,74,0.00,,,0.02,Wunderground v.1.15,2013-07-07 05:05:00,
2013-07-06 23:10:00,57.1,48.5,29.49,East,84,0.0,11.0,73,0.00,,,0.02,Wunderground v.1.15,2013-07-07 05:10:00,
2013-07-06 23:15:00,57.5,48.5,29.49,East,84,0.0,11.0,72,0.00,,,0.02,Wunderground v.1.15,2013-07-07 05:15:00,
2013-07-06 23:20:00,57.7,49.1,29.49,East,84,0.0,11.0,73,0.00,,,0.02,Wunderground v.1.15,2013-07-07 05:20:00,
2013-07-06 23:30:00,57.8,48.5,29.49,East,84,0.0,11.0,71,0.00,,,0.02,Wunderground v.1.15,2013-07-07 05:30:00,
2013-07-06 23:35:00,58.0,48.6,29.49,East,84,0.0,11.0,71,0.00,,,0.02,Wunderground v.1.15,2013-07-07 05:35:00,
2013-07-06 23:40:00,58.0,48.6,29.49,East,84,0.0,11.0,71,0.00,,,0.02,Wunderground v.1.15,2013-07-07 05:40:00,
2013-07-06 23:45:00,58.0,48.6,29.49,East,84,0.0,11.0,71,0.00,,,0.02,Wunderground v.1.15,2013-07-07 05:45:00,
2013-07-06 23:55:00,58.0,48.6,29.49,East,84,0.0,11.0,71,0.00,,,0.02,Wunderground v.1.15,2013-07-07 05:55:00,